Monticello Municipal Ellis Field
KLLQ : now visible

Airfield :











YOU CAN JOIN US ON...

 
LOGIN :

Register | Disclaimer

   EN    FR    IT 

 









Legend :    VFR   Marginal VFR   IFR   Intensive IFR   Very Intensive IFR
Visi :
Ceiling :
>= 8 km
>= 3000ft
5 to 8 km
1000 to 3000 ft
1500m to 5 km
500 to 1000 ft
800 to 1500m
200 to 500 ft
< 800m
< 200 ft
Symbols :   Thunderstorms  Fog  Heavy snow  Heavy precipitations  Wind > 20 kt






- Airport Elevation : 270 ft


KLLQ - Monticello Municipal Ellis Field

CURRENT METAR :
  • 010053Z AUTO 00000KT 10SM CLR 12/08 A2999 RMK AO2 SLP154 T01170083 $

EXPIRED METARs :
  • 312353Z AUTO 10SM 17/06 A2998 RMK AO2 SLP150 T01670061 10178 20128 53006 PWINO $
  • 312253Z AUTO 36007KT 320V030 10SM FEW044 17/06 A2997 RMK AO2 SLP149 T01720056

TAF KLLQ
Valid from the 01 at 00:00 until the 02 at 00:00 UTC


312334Z 0100/0124 32008KT P6SM SCT060
FM010300 VRB03KT P6SM SKC
FM010900 VRB04KT 5SM BR SKC
FM011400 09005KT P6SM SKC



MET'MAP, your aeronautical weather chart ! - Copyright ORBIFLY December 2007 - Disclaimer

ORBIFLY MET'MAP TEAM :

Programming & Development : Alexandra Zaïnal
Concept & original design : Baudouin d'Aumeries
Assistance for programming : Marc-Olivier Méhu
Technical & hardware support : Manuel Goepfert

Contact : metmap@orbifly.com




SOURCES & CREDITS :

   NOAA       Earth
Advisory